Wuustwezel, Belgium
Current Conditions -  °F | °C
As of 8:25 AM on Friday 31 Oct 2014 (Local Time) from EHWO Reporting Station
Scattered Clouds Scattered Clouds  
Wind Chill: 54°   Ceiling: Unl
Heat Index: 54°   Visibility: 6mi
Dew Point: 52°   Wind: 3mph
Humidity: 94%   Direction: 180°S
Pressure: 30.15"   Gusts: NA
Location:  51.39°N, 4.6°E
Report Text: EHWO 310725Z AUTO 18003KT 9999 SCT280 12/11 Q1021 BLU 19004KT CAVOK
Loading
Personal Weather Stations






























Interactive Weather Map
Tropical Storm Tracking
New forecast layout! Learn more

10-Day Weather Forecast

Advertisements
Track Severe Weather on mobile